createdAt,value
2019-05-07T00:00:43.645Z,51.56
2019-05-07T00:01:42.347Z,54.30
2019-05-07T00:02:42.799Z,64.94
2019-05-07T00:03:42.270Z,66.23
2019-05-07T00:04:42.808Z,74.12
2019-05-07T00:05:42.800Z,90.40
2019-05-07T00:06:43.449Z,69.45
2019-05-07T00:07:43.067Z,68.80
2019-05-07T00:08:44.921Z,66.06
2019-05-07T00:09:43.153Z,66.55
2019-05-07T00:10:43.009Z,68.16
2019-05-07T00:11:42.696Z,71.06
2019-05-07T00:12:44.073Z,90.07
2019-05-07T00:13:44.427Z,80.73
2019-05-07T00:14:47.216Z,78.96
2019-05-07T00:15:45.589Z,63.49
2019-05-07T00:16:43.171Z,64.78
2019-05-07T00:17:44.085Z,63.16
2019-05-07T00:18:43.508Z,76.05
2019-05-07T00:19:43.683Z,71.87
2019-05-07T00:20:43.853Z,80.73
2019-05-07T00:21:44.005Z,73.32
2019-05-07T00:22:45.094Z,77.50
2019-05-07T00:23:45.116Z,59.94
2019-05-07T00:24:45.120Z,57.36
2019-05-07T00:25:44.606Z,59.30
2019-05-07T00:26:45.585Z,77.83
2019-05-07T00:27:45.580Z,79.60
2019-05-07T00:28:45.606Z,64.45
2019-05-07T00:29:45.269Z,54.79
2019-05-07T00:30:45.434Z,78.31
2019-05-07T00:31:46.094Z,81.86
2019-05-07T00:32:46.602Z,58.17
2019-05-07T00:33:46.979Z,68.32
2019-05-07T00:34:46.581Z,66.23
2019-05-07T00:35:46.631Z,63.00
2019-05-07T00:36:46.499Z,58.97
2019-05-07T00:37:46.650Z,56.56
2019-05-07T00:38:47.609Z,55.91
2019-05-07T00:39:46.987Z,58.33
2019-05-07T00:40:47.152Z,58.49
2019-05-07T00:41:47.267Z,64.29
2019-05-07T00:42:49.084Z,81.53
2019-05-07T00:43:47.692Z,52.69
2019-05-07T00:44:48.604Z,54.30
2019-05-07T00:45:48.003Z,55.91
2019-05-07T00:46:49.092Z,79.12
2019-05-07T00:47:49.085Z,73.96
2019-05-07T00:48:48.553Z,57.36
2019-05-07T00:50:09.694Z,53.17
2019-05-07T00:50:49.095Z,58.97
2019-05-07T00:51:49.090Z,56.72
2019-05-07T00:52:52.220Z,52.05
2019-05-07T00:53:49.350Z,76.70
2019-05-07T00:54:49.486Z,57.36
2019-05-07T00:55:49.629Z,78.96
2019-05-07T00:56:51.991Z,56.72
2019-05-07T00:57:50.002Z,51.08
2019-05-07T00:58:52.534Z,58.49
2019-05-07T00:59:52.323Z,78.31
2019-05-07T01:00:50.449Z,79.92
2019-05-07T01:01:52.654Z,58.49
2019-05-07T01:02:52.529Z,56.24
2019-05-07T01:03:53.427Z,81.53
2019-05-07T01:04:53.389Z,55.75
2019-05-07T01:05:52.881Z,52.69
2019-05-07T01:06:53.276Z,54.79
2019-05-07T01:07:53.056Z,80.57
2019-05-07T01:08:52.944Z,63.16
2019-05-07T01:09:52.473Z,80.41
2019-05-07T01:10:53.346Z,79.60
2019-05-07T01:11:52.594Z,54.62
2019-05-07T01:12:53.593Z,60.42
2019-05-07T01:13:52.956Z,55.27
2019-05-07T01:14:53.101Z,61.55
2019-05-07T01:16:14.199Z,76.22
2019-05-07T01:16:54.431Z,52.85
2019-05-07T01:17:53.516Z,59.30
2019-05-07T01:18:53.888Z,54.79
2019-05-07T01:19:55.626Z,80.41
2019-05-07T01:20:54.605Z,61.23
2019-05-07T01:21:54.623Z,58.49
2019-05-07T01:22:54.833Z,53.17
2019-05-07T01:23:55.616Z,51.72
2019-05-07T01:24:54.720Z,51.72
2019-05-07T01:25:54.879Z,55.43
2019-05-07T01:26:55.595Z,51.08
2019-05-07T01:27:55.602Z,57.04
2019-05-07T01:28:55.499Z,75.09
2019-05-07T01:29:55.636Z,79.44
2019-05-07T01:30:55.790Z,60.59
2019-05-07T01:31:55.931Z,54.95
2019-05-07T01:32:56.112Z,51.24
2019-05-07T01:33:56.245Z,53.50
2019-05-07T01:34:56.357Z,52.37
2019-05-07T01:35:56.513Z,60.91
2019-05-07T01:36:57.609Z,52.85
2019-05-07T01:37:57.121Z,55.75
2019-05-07T01:38:57.622Z,57.52
2019-05-07T01:39:57.120Z,53.50
2019-05-07T01:40:57.261Z,49.79
2019-05-07T01:41:57.426Z,51.56
2019-05-07T01:42:57.618Z,52.53
2019-05-07T01:43:57.784Z,52.37
2019-05-07T01:44:58.614Z,79.60
2019-05-07T01:45:59.093Z,62.04
2019-05-07T01:46:58.335Z,53.50
2019-05-07T01:47:58.504Z,52.85
2019-05-07T01:48:58.638Z,80.73
2019-05-07T01:49:58.822Z,61.71
2019-05-07T01:50:58.978Z,50.43
2019-05-07T01:52:02.308Z,52.05
2019-05-07T01:53:00.338Z,52.05
2019-05-07T01:54:02.145Z,50.27
2019-05-07T01:55:00.110Z,51.24
2019-05-07T01:55:59.967Z,57.36
2019-05-07T01:57:02.648Z,52.85
2019-05-07T01:58:00.249Z,50.76
2019-05-07T01:59:02.383Z,54.95
2019-05-07T02:00:02.635Z,54.30
2019-05-07T02:01:02.797Z,54.95
2019-05-07T02:02:02.982Z,79.12
2019-05-07T02:03:02.805Z,75.09
2019-05-07T02:04:02.402Z,73.64
2019-05-07T02:05:03.246Z,83.79
2019-05-07T02:06:02.565Z,77.83
2019-05-07T02:07:02.834Z,50.43
2019-05-07T02:08:03.028Z,51.72
2019-05-07T02:09:03.026Z,80.57
2019-05-07T02:10:02.842Z,74.77
2019-05-07T02:11:03.443Z,50.76
2019-05-07T02:12:03.600Z,63.16
2019-05-07T02:13:02.845Z,82.98
2019-05-07T02:14:02.973Z,53.01
2019-05-07T02:15:03.118Z,78.96
2019-05-07T02:16:04.256Z,53.82
2019-05-07T02:17:05.106Z,77.50
2019-05-07T02:18:03.556Z,83.31
2019-05-07T02:19:03.690Z,79.60
2019-05-07T02:20:03.930Z,63.33
2019-05-07T02:21:04.059Z,56.24
2019-05-07T02:22:04.296Z,75.73
2019-05-07T02:23:04.431Z,79.44
2019-05-07T02:24:05.104Z,76.22
2019-05-07T02:25:04.733Z,73.15
2019-05-07T02:26:04.858Z,77.83
2019-05-07T02:27:05.606Z,54.14
2019-05-07T02:28:05.229Z,71.38
2019-05-07T02:29:05.376Z,78.63
2019-05-07T02:30:05.520Z,80.24
2019-05-07T02:31:06.129Z,79.44
2019-05-07T02:32:05.881Z,53.01
2019-05-07T02:33:06.117Z,80.41
2019-05-07T02:34:06.219Z,68.48
2019-05-07T02:35:06.379Z,73.96
2019-05-07T02:36:07.125Z,77.67
2019-05-07T02:37:06.742Z,80.57
2019-05-07T02:38:06.893Z,70.58
2019-05-07T02:39:07.029Z,77.34
2019-05-07T02:40:08.108Z,78.63
2019-05-07T02:41:07.492Z,76.86
2019-05-07T02:42:07.614Z,73.80
2019-05-07T02:43:07.875Z,79.28
2019-05-07T02:44:07.983Z,70.58
2019-05-07T02:45:08.101Z,78.63
2019-05-07T02:46:22.423Z,77.67
2019-05-07T02:47:12.892Z,80.73
2019-05-07T02:48:09.122Z,78.63
2019-05-07T02:49:08.884Z,76.05
2019-05-07T02:50:08.998Z,77.67
2019-05-07T02:51:09.114Z,79.28
2019-05-07T02:52:09.262Z,81.21
2019-05-07T02:53:09.429Z,81.05
2019-05-07T02:54:13.194Z,81.86
2019-05-07T02:55:13.411Z,78.47
2019-05-07T02:56:12.982Z,76.38
2019-05-07T02:57:16.591Z,81.21
2019-05-07T02:58:13.702Z,72.99
2019-05-07T02:59:13.353Z,79.92
2019-05-07T03:00:14.047Z,77.50
2019-05-07T03:01:13.430Z,75.57
2019-05-07T03:02:13.734Z,81.05
2019-05-07T03:03:13.882Z,81.69
2019-05-07T03:04:12.931Z,79.44
2019-05-07T03:05:13.711Z,79.76
2019-05-07T03:06:13.524Z,78.96
2019-05-07T03:07:13.324Z,77.18
2019-05-07T03:08:13.706Z,83.47
2019-05-07T03:09:14.371Z,80.24
2019-05-07T03:10:13.984Z,78.31
2019-05-07T03:11:14.279Z,81.05
2019-05-07T03:12:13.633Z,80.57
2019-05-07T03:13:14.090Z,79.92
2019-05-07T03:14:14.362Z,81.53
2019-05-07T03:15:13.365Z,81.69
2019-05-07T03:16:14.255Z,81.53
2019-05-07T03:17:13.582Z,81.05
2019-05-07T03:18:14.471Z,80.08
2019-05-07T03:19:14.820Z,82.66
2019-05-07T03:20:14.156Z,78.63
2019-05-07T03:21:15.123Z,81.21
2019-05-07T03:22:14.326Z,79.76
2019-05-07T03:23:14.575Z,83.14
2019-05-07T03:24:14.690Z,79.60
2019-05-07T03:25:14.962Z,81.69
2019-05-07T03:26:15.117Z,76.54
2019-05-07T03:27:15.226Z,83.79
2019-05-07T03:28:16.115Z,81.86
2019-05-07T03:29:15.463Z,77.99
2019-05-07T03:30:17.099Z,77.99
2019-05-07T03:31:17.456Z,80.41
2019-05-07T03:32:16.350Z,82.98
2019-05-07T03:33:17.246Z,80.41
2019-05-07T03:34:16.888Z,80.41
2019-05-07T03:35:17.170Z,81.21
2019-05-07T03:36:17.490Z,81.37
2019-05-07T03:37:17.148Z,82.18
2019-05-07T03:38:17.006Z,80.57
2019-05-07T03:39:17.140Z,82.02
2019-05-07T03:40:17.252Z,83.95
2019-05-07T03:41:18.400Z,82.66
2019-05-07T03:42:17.673Z,81.69
2019-05-07T03:43:17.760Z,82.82
2019-05-07T03:44:17.913Z,82.02
2019-05-07T03:45:18.047Z,82.18
2019-05-07T03:46:18.192Z,82.66
2019-05-07T03:47:18.361Z,82.98
2019-05-07T03:48:18.529Z,80.73
2019-05-07T03:49:18.663Z,83.63
2019-05-07T03:50:18.819Z,81.37
2019-05-07T03:51:18.971Z,83.14
2019-05-07T03:52:19.143Z,81.86
2019-05-07T03:53:19.312Z,80.41
2019-05-07T03:54:20.114Z,81.86
2019-05-07T03:55:19.635Z,80.73
2019-05-07T03:56:23.391Z,82.02
2019-05-07T03:57:23.460Z,80.41
2019-05-07T03:58:23.206Z,81.37
2019-05-07T03:59:23.171Z,82.66
2019-05-07T04:00:23.647Z,83.14
2019-05-07T04:01:23.718Z,81.86
2019-05-07T04:02:23.815Z,81.53
2019-05-07T04:03:24.319Z,80.41
2019-05-07T04:04:22.989Z,80.89
2019-05-07T04:05:23.198Z,81.37
2019-05-07T04:06:23.357Z,82.98
2019-05-07T04:07:23.456Z,81.21
2019-05-07T04:08:23.826Z,81.21
2019-05-07T04:09:24.151Z,84.43
2019-05-07T04:10:23.544Z,85.08
2019-05-07T04:11:23.191Z,82.18
2019-05-07T04:12:24.629Z,85.08
2019-05-07T04:13:24.154Z,82.98
2019-05-07T04:14:24.112Z,81.53
2019-05-07T04:15:23.579Z,81.86
2019-05-07T04:16:24.480Z,85.08
2019-05-07T04:17:26.986Z,80.89
2019-05-07T04:18:24.833Z,81.21
2019-05-07T04:19:24.045Z,80.57
2019-05-07T04:20:24.309Z,84.59
2019-05-07T04:21:24.433Z,79.44
2019-05-07T04:22:28.829Z,81.37
2019-05-07T04:23:25.711Z,82.82
2019-05-07T04:24:24.957Z,83.14
2019-05-07T04:25:25.091Z,81.69
2019-05-07T04:26:25.262Z,82.66
2019-05-07T04:27:25.406Z,82.98
2019-05-07T04:28:25.575Z,82.34
2019-05-07T04:29:25.729Z,81.86
2019-05-07T04:30:26.134Z,82.82
2019-05-07T04:31:26.018Z,82.98
2019-05-07T04:32:26.160Z,83.14
2019-05-07T04:33:26.284Z,81.21
2019-05-07T04:34:26.647Z,82.02
2019-05-07T04:35:27.620Z,81.53
2019-05-07T04:37:03.187Z,82.98
2019-05-07T04:37:26.967Z,80.57
2019-05-07T04:38:27.640Z,83.47
2019-05-07T04:39:27.243Z,80.89
2019-05-07T04:40:27.353Z,81.86
2019-05-07T04:41:27.616Z,82.50
2019-05-07T04:42:27.764Z,82.50
2019-05-07T04:43:27.881Z,82.18
2019-05-07T04:44:28.155Z,83.79
2019-05-07T04:45:28.636Z,81.53
2019-05-07T04:46:29.147Z,80.24
2019-05-07T04:47:38.410Z,86.37
2019-05-07T04:48:33.747Z,82.50
2019-05-07T04:49:29.156Z,82.82
2019-05-07T04:50:42.070Z,82.66
2019-05-07T04:51:33.613Z,82.02
2019-05-07T04:52:29.399Z,81.69
2019-05-07T04:53:32.707Z,82.82
2019-05-07T04:54:29.702Z,84.92
2019-05-07T04:55:33.173Z,81.21
2019-05-07T04:56:29.958Z,82.66
2019-05-07T04:57:32.853Z,81.53
2019-05-07T04:58:33.831Z,81.37
2019-05-07T04:59:32.972Z,83.47
2019-05-07T05:00:33.656Z,83.95
2019-05-07T05:01:32.870Z,82.66
2019-05-07T05:02:32.482Z,81.05
2019-05-07T05:03:34.698Z,84.43
2019-05-07T05:04:34.888Z,83.79
2019-05-07T05:05:33.101Z,80.89
2019-05-07T05:06:33.027Z,81.53
2019-05-07T05:07:33.582Z,81.86
2019-05-07T05:08:32.980Z,83.47
2019-05-07T05:09:32.900Z,81.69
2019-05-07T05:10:33.636Z,82.18
2019-05-07T05:11:33.736Z,82.18
2019-05-07T05:12:33.715Z,82.34
2019-05-07T05:13:33.323Z,81.05
2019-05-07T05:14:34.164Z,81.05
2019-05-07T05:15:33.259Z,80.73
2019-05-07T05:16:33.420Z,83.14
2019-05-07T05:17:46.914Z,84.27
2019-05-07T05:18:36.152Z,81.21
2019-05-07T05:19:33.995Z,80.73
2019-05-07T05:20:34.126Z,81.86
2019-05-07T05:21:34.253Z,82.50
2019-05-07T05:22:34.395Z,76.70
2019-05-07T05:23:34.566Z,80.24
2019-05-07T05:24:35.644Z,82.82
2019-05-07T05:25:34.853Z,82.02
2019-05-07T05:26:35.652Z,78.96
2019-05-07T05:27:35.649Z,82.98
2019-05-07T05:28:35.431Z,81.37
2019-05-07T05:29:35.578Z,79.76
2019-05-07T05:30:35.712Z,81.86
2019-05-07T05:31:36.656Z,80.73
2019-05-07T05:32:36.664Z,81.69
2019-05-07T05:33:36.418Z,84.43
2019-05-07T05:34:37.166Z,78.47
2019-05-07T05:35:36.816Z,80.08
2019-05-07T05:36:36.924Z,80.73
2019-05-07T05:37:37.155Z,78.63
2019-05-07T05:38:37.269Z,79.44
2019-05-07T05:39:37.519Z,80.08
2019-05-07T05:40:37.678Z,79.28
2019-05-07T05:41:38.072Z,87.01
2019-05-07T05:42:38.974Z,79.76
2019-05-07T05:43:38.209Z,86.69
2019-05-07T05:44:38.331Z,83.95
2019-05-07T05:45:38.563Z,82.02
2019-05-07T05:46:39.797Z,79.76
2019-05-07T05:47:42.115Z,80.73
2019-05-07T05:48:42.544Z,82.82
2019-05-07T05:49:39.475Z,80.41
2019-05-07T05:50:42.155Z,77.67
2019-05-07T05:51:39.857Z,79.28
2019-05-07T05:52:42.354Z,78.96
2019-05-07T05:53:40.322Z,81.69
2019-05-07T05:54:42.436Z,80.73
2019-05-07T05:55:42.705Z,81.86
2019-05-07T05:56:42.706Z,80.73
2019-05-07T05:57:42.486Z,80.73
2019-05-07T05:58:43.204Z,82.02
2019-05-07T05:59:49.291Z,80.08
2019-05-07T06:00:43.601Z,80.41
2019-05-07T06:01:42.625Z,82.18
2019-05-07T06:02:44.188Z,82.02
2019-05-07T06:03:43.172Z,82.34
2019-05-07T06:04:42.386Z,82.02
2019-05-07T06:05:42.689Z,83.14
2019-05-07T06:06:43.676Z,81.05
2019-05-07T06:07:43.677Z,79.76
2019-05-07T06:08:43.478Z,81.86
2019-05-07T06:09:44.304Z,81.69
2019-05-07T06:10:43.406Z,82.34
2019-05-07T06:11:43.698Z,80.41
2019-05-07T06:12:43.722Z,80.24
2019-05-07T06:13:43.860Z,83.47
2019-05-07T06:14:44.120Z,79.44
2019-05-07T06:15:44.215Z,84.43
2019-05-07T06:16:44.693Z,80.08
2019-05-07T06:17:44.559Z,81.86
2019-05-07T06:18:44.812Z,82.98
2019-05-07T06:19:44.954Z,80.08
2019-05-07T06:20:45.676Z,80.24
2019-05-07T06:21:45.686Z,79.44
2019-05-07T06:22:46.163Z,83.95
2019-05-07T06:23:46.176Z,82.66
2019-05-07T06:24:45.802Z,80.41
2019-05-07T06:25:46.070Z,80.41
2019-05-07T06:26:46.206Z,82.50
2019-05-07T06:27:46.466Z,78.79
2019-05-07T06:28:46.600Z,81.21
2019-05-07T06:29:46.718Z,79.28
2019-05-07T06:30:46.848Z,81.05
2019-05-07T06:31:47.677Z,78.31
2019-05-07T06:32:47.187Z,82.18
2019-05-07T06:33:47.325Z,81.05
2019-05-07T06:34:47.465Z,83.79
2019-05-07T06:35:47.601Z,82.66
2019-05-07T06:36:47.745Z,79.44
2019-05-07T06:37:48.195Z,81.21
2019-05-07T06:38:48.061Z,84.11
2019-05-07T06:39:48.713Z,81.86
2019-05-07T06:40:48.445Z,86.69
2019-05-07T06:41:48.710Z,81.53
2019-05-07T06:42:49.683Z,84.59
2019-05-07T06:43:49.177Z,79.92
2019-05-07T06:44:51.872Z,79.76
2019-05-07T06:45:51.747Z,83.95
2019-05-07T06:46:49.506Z,79.60
2019-05-07T06:47:51.948Z,78.31
2019-05-07T06:48:52.731Z,78.47
2019-05-07T06:49:52.217Z,80.24
2019-05-07T06:50:52.279Z,76.05
2019-05-07T06:51:52.813Z,77.34
2019-05-07T06:52:51.937Z,77.83
2019-05-07T06:53:51.988Z,81.21
2019-05-07T06:54:52.375Z,82.82
2019-05-07T06:55:52.672Z,81.21
2019-05-07T06:56:52.468Z,82.18
2019-05-07T06:57:53.060Z,80.24
2019-05-07T06:58:52.804Z,79.60
2019-05-07T06:59:53.165Z,81.53
2019-05-07T07:00:53.691Z,79.28
2019-05-07T07:01:52.931Z,90.40
2019-05-07T07:02:54.172Z,83.14
2019-05-07T07:03:52.748Z,80.89
2019-05-07T07:04:53.669Z,81.05
2019-05-07T07:05:52.779Z,81.37
2019-05-07T07:06:53.685Z,80.08
2019-05-07T07:07:53.687Z,79.12
2019-05-07T07:08:53.181Z,81.37
2019-05-07T07:09:53.320Z,79.76
2019-05-07T07:10:54.457Z,80.41
2019-05-07T07:11:54.222Z,77.67
2019-05-07T07:12:53.887Z,81.86
2019-05-07T07:13:54.013Z,79.12
2019-05-07T07:14:54.154Z,78.47
2019-05-07T07:15:55.213Z,78.79
2019-05-07T07:16:54.431Z,82.66
2019-05-07T07:17:54.565Z,80.08
2019-05-07T07:18:55.963Z,80.57
2019-05-07T07:19:55.862Z,80.57
2019-05-07T07:20:55.685Z,77.83
2019-05-07T07:21:55.678Z,80.41
2019-05-07T07:22:55.333Z,93.94
2019-05-07T07:23:55.477Z,76.54
2019-05-07T07:24:55.695Z,75.73
2019-05-07T07:25:55.815Z,78.79
2019-05-07T07:26:57.676Z,76.05
2019-05-07T07:27:56.155Z,81.21
2019-05-07T07:28:56.319Z,77.99
2019-05-07T07:29:56.545Z,81.37
2019-05-07T07:30:57.192Z,79.44
2019-05-07T07:31:56.828Z,79.28
2019-05-07T07:32:57.702Z,78.31
2019-05-07T07:33:57.190Z,82.02
2019-05-07T07:34:57.697Z,79.44
2019-05-07T07:35:57.447Z,79.92
2019-05-07T07:37:05.998Z,77.50
2019-05-07T07:37:59.710Z,78.31
2019-05-07T07:38:57.948Z,76.54
2019-05-07T07:39:58.078Z,75.57
2019-05-07T07:40:59.180Z,80.24
2019-05-07T07:41:58.714Z,78.63
2019-05-07T07:42:58.603Z,81.21
2019-05-07T07:43:58.754Z,78.31
2019-05-07T07:44:59.701Z,79.76
2019-05-07T07:46:02.072Z,80.89
2019-05-07T07:46:59.243Z,81.21
2019-05-07T07:47:59.406Z,76.54
2019-05-07T07:49:09.832Z,82.82
2019-05-07T07:50:02.675Z,80.73
2019-05-07T07:51:03.220Z,86.04
2019-05-07T07:52:03.174Z,82.82
2019-05-07T07:53:02.603Z,79.76
2019-05-07T07:54:02.562Z,79.44
2019-05-07T07:55:02.161Z,78.79
2019-05-07T07:56:02.685Z,85.24
2019-05-07T07:57:02.276Z,77.34
2019-05-07T07:58:02.647Z,79.60
2019-05-07T07:59:02.343Z,78.47
2019-05-07T08:00:02.600Z,81.37
2019-05-07T08:01:02.924Z,77.67
2019-05-07T08:02:03.213Z,80.41
2019-05-07T08:03:02.707Z,80.57
2019-05-07T08:04:02.891Z,78.15
2019-05-07T08:05:04.204Z,77.50
2019-05-07T08:06:02.698Z,80.57
2019-05-07T08:07:03.794Z,81.53
2019-05-07T08:08:03.025Z,77.99
2019-05-07T08:09:03.716Z,79.60
2019-05-07T08:10:03.327Z,79.28
2019-05-07T08:11:03.461Z,79.60
2019-05-07T08:12:03.826Z,78.79
2019-05-07T08:13:03.817Z,77.67
2019-05-07T08:14:03.956Z,77.67
2019-05-07T08:15:17.376Z,77.18
2019-05-07T08:16:06.304Z,76.70
2019-05-07T08:17:04.521Z,78.15
2019-05-07T08:18:04.684Z,77.02
2019-05-07T08:19:18.436Z,81.21
2019-05-07T08:20:07.045Z,76.38
2019-05-07T08:21:07.919Z,77.50
2019-05-07T08:22:05.407Z,81.21
2019-05-07T08:23:05.585Z,78.63
2019-05-07T08:24:05.705Z,82.66
2019-05-07T08:25:06.722Z,80.24
2019-05-07T08:26:06.077Z,79.28
2019-05-07T08:27:07.215Z,78.63
2019-05-07T08:28:06.740Z,78.79
2019-05-07T08:29:06.544Z,82.34
2019-05-07T08:30:07.230Z,77.18
2019-05-07T08:31:06.857Z,76.70
2019-05-07T08:32:07.002Z,78.63
2019-05-07T08:33:09.726Z,76.54
2019-05-07T08:34:08.376Z,77.50
2019-05-07T08:35:07.477Z,76.86
2019-05-07T08:36:07.625Z,81.37
2019-05-07T08:37:07.761Z,80.73
2019-05-07T08:38:07.921Z,79.44
2019-05-07T08:39:08.058Z,78.79
2019-05-07T08:40:08.229Z,78.31
2019-05-07T08:41:08.363Z,77.18
2019-05-07T08:42:08.493Z,77.34
2019-05-07T08:43:08.601Z,79.76
2019-05-07T08:44:12.326Z,81.53
2019-05-07T08:45:11.957Z,79.76
2019-05-07T08:46:09.225Z,76.38
2019-05-07T08:47:09.409Z,83.31
2019-05-07T08:48:09.650Z,76.86
2019-05-07T08:49:11.960Z,76.86
2019-05-07T08:50:34.126Z,79.60
2019-05-07T08:51:11.922Z,77.02
2019-05-07T08:52:12.043Z,77.99
2019-05-07T08:53:13.035Z,81.37
2019-05-07T08:54:12.295Z,78.15
2019-05-07T08:55:12.594Z,79.44
2019-05-07T08:56:12.521Z,77.02
2019-05-07T08:57:33.205Z,78.31
2019-05-07T08:58:12.033Z,73.48
2019-05-07T08:59:12.586Z,80.41
2019-05-07T09:00:12.385Z,78.15
2019-05-07T09:01:12.959Z,82.18
2019-05-07T09:02:12.837Z,81.21
2019-05-07T09:03:20.199Z,79.28
2019-05-07T09:04:14.404Z,78.15
2019-05-07T09:05:13.620Z,77.34
2019-05-07T09:06:12.861Z,79.60
2019-05-07T09:07:13.233Z,78.47
2019-05-07T09:08:14.177Z,81.21
2019-05-07T09:09:14.219Z,80.73
2019-05-07T09:10:13.603Z,79.76
2019-05-07T09:11:14.266Z,78.31
2019-05-07T09:12:13.889Z,80.24
2019-05-07T09:13:14.051Z,80.73
2019-05-07T09:14:14.183Z,77.18
2019-05-07T09:15:14.319Z,78.79
2019-05-07T09:16:14.473Z,80.57
2019-05-07T09:17:14.607Z,79.92
2019-05-07T09:18:14.766Z,76.70
2019-05-07T09:19:15.733Z,82.50
2019-05-07T09:20:15.723Z,82.02
2019-05-07T09:21:15.727Z,78.79
2019-05-07T09:22:15.339Z,78.15
2019-05-07T09:23:15.506Z,79.28
2019-05-07T09:24:15.624Z,80.24
2019-05-07T09:25:15.770Z,78.15
2019-05-07T09:26:15.968Z,78.96
2019-05-07T09:27:16.136Z,77.83
2019-05-07T09:28:16.296Z,77.99
2019-05-07T09:29:17.494Z,81.37
2019-05-07T09:30:16.622Z,82.98
2019-05-07T09:31:16.807Z,80.57
2019-05-07T09:32:16.986Z,79.12
2019-05-07T09:33:17.115Z,79.12
2019-05-07T09:34:17.234Z,78.47
2019-05-07T09:35:18.223Z,83.79
2019-05-07T09:36:17.576Z,78.96
2019-05-07T09:37:17.718Z,81.69
2019-05-07T09:38:18.722Z,79.12
2019-05-07T09:39:18.074Z,77.67
2019-05-07T09:40:18.228Z,85.24
2019-05-07T09:41:18.370Z,79.44
2019-05-07T09:42:18.503Z,79.12
2019-05-07T09:43:18.643Z,81.21
2019-05-07T09:44:18.788Z,78.79
2019-05-07T09:45:18.916Z,80.24
2019-05-07T09:46:20.744Z,78.47
2019-05-07T09:47:21.947Z,81.53
2019-05-07T09:48:19.554Z,80.24
2019-05-07T09:49:22.138Z,77.83
2019-05-07T09:50:21.892Z,80.57
2019-05-07T09:51:20.075Z,78.79
2019-05-07T09:52:20.239Z,79.92
2019-05-07T09:53:20.431Z,81.86
2019-05-07T09:54:20.599Z,80.57
2019-05-07T09:55:23.377Z,78.96
2019-05-07T09:56:22.919Z,79.76
2019-05-07T09:57:30.044Z,77.50
2019-05-07T09:58:35.658Z,78.63
2019-05-07T09:59:23.426Z,79.28
2019-05-07T10:00:22.623Z,77.02
2019-05-07T10:01:23.681Z,81.05
2019-05-07T10:02:23.727Z,80.57
2019-05-07T10:03:22.799Z,78.96
2019-05-07T10:04:23.378Z,78.15
2019-05-07T10:05:22.486Z,78.15
2019-05-07T10:06:22.928Z,78.96
2019-05-07T10:07:23.764Z,81.86
2019-05-07T10:08:23.020Z,77.50
2019-05-07T10:09:23.254Z,78.47
2019-05-07T10:10:23.285Z,77.67
2019-05-07T10:11:23.487Z,76.70
2019-05-07T10:12:23.646Z,79.44
2019-05-07T10:13:23.775Z,79.12
2019-05-07T10:14:24.244Z,77.67
2019-05-07T10:15:24.126Z,78.31
2019-05-07T10:16:24.268Z,81.05
2019-05-07T10:17:24.392Z,79.92
2019-05-07T10:18:24.519Z,79.12
2019-05-07T10:19:24.805Z,79.92
2019-05-07T10:20:25.745Z,77.34
2019-05-07T10:21:24.926Z,77.34
2019-05-07T10:22:25.199Z,76.70
2019-05-07T10:23:25.320Z,79.92
2019-05-07T10:24:25.763Z,79.76
2019-05-07T10:25:25.741Z,77.34
2019-05-07T10:26:26.740Z,82.34
2019-05-07T10:27:26.205Z,78.63
2019-05-07T10:28:26.447Z,76.86
2019-05-07T10:29:26.705Z,78.96
2019-05-07T10:30:27.736Z,79.92
2019-05-07T10:31:27.054Z,80.89
2019-05-07T10:32:27.177Z,82.98
2019-05-07T10:33:27.298Z,80.08
2019-05-07T10:34:27.763Z,78.96
2019-05-07T10:35:30.917Z,74.60
2019-05-07T10:36:27.778Z,79.44
2019-05-07T10:37:27.910Z,78.96
2019-05-07T10:38:28.064Z,81.05
2019-05-07T10:39:28.247Z,79.28
2019-05-07T10:40:28.368Z,79.44
2019-05-07T10:41:28.501Z,78.15
2019-05-07T10:42:29.245Z,79.44
2019-05-07T10:43:29.751Z,79.76
2019-05-07T10:44:29.255Z,79.76
2019-05-07T10:45:29.149Z,79.28
2019-05-07T10:46:31.922Z,74.12
2019-05-07T10:47:30.234Z,82.50
2019-05-07T10:48:32.014Z,79.76
2019-05-07T10:49:31.725Z,78.47
2019-05-07T10:50:36.335Z,82.82
2019-05-07T10:51:32.303Z,80.73
2019-05-07T10:52:31.834Z,78.79
2019-05-07T10:53:32.235Z,76.70
2019-05-07T10:54:31.243Z,82.50
2019-05-07T10:55:32.706Z,78.63
2019-05-07T10:56:32.620Z,78.47
2019-05-07T10:57:32.889Z,82.02
2019-05-07T10:58:31.990Z,78.15
2019-05-07T10:59:32.417Z,76.70
2019-05-07T11:00:33.101Z,78.96
2019-05-07T11:01:32.956Z,79.28
2019-05-07T11:02:33.038Z,79.76
2019-05-07T11:03:32.572Z,78.47
2019-05-07T11:04:42.123Z,81.21
2019-05-07T11:05:34.764Z,78.31
2019-05-07T11:06:32.698Z,80.73
2019-05-07T11:07:33.264Z,78.15
2019-05-07T11:08:33.747Z,77.83
2019-05-07T11:09:33.760Z,77.99
2019-05-07T11:10:34.238Z,78.79
2019-05-07T11:11:33.605Z,80.24
2019-05-07T11:12:33.762Z,79.44
2019-05-07T11:13:33.914Z,79.12
2019-05-07T11:14:34.047Z,84.11
2019-05-07T11:15:34.201Z,77.99
2019-05-07T11:16:34.354Z,80.41
2019-05-07T11:17:34.507Z,82.34
2019-05-07T11:18:34.751Z,76.05
2019-05-07T11:19:34.862Z,79.28
2019-05-07T11:20:46.416Z,78.31
2019-05-07T11:21:37.185Z,77.50
2019-05-07T11:22:35.390Z,78.15
2019-05-07T11:23:35.759Z,79.12
2019-05-07T11:24:35.765Z,77.67
2019-05-07T11:25:35.904Z,79.60
2019-05-07T11:26:36.024Z,74.28
2019-05-07T11:27:36.161Z,77.67
2019-05-07T11:28:36.302Z,78.63
2019-05-07T11:29:37.251Z,79.12
2019-05-07T11:30:36.612Z,81.05
2019-05-07T11:31:36.760Z,78.96
2019-05-07T11:32:36.881Z,79.12
2019-05-07T11:33:37.026Z,80.73
2019-05-07T11:34:37.186Z,80.73
2019-05-07T11:35:37.335Z,84.76
2019-05-07T11:36:37.522Z,79.28
2019-05-07T11:37:37.643Z,77.50
2019-05-07T11:38:37.785Z,78.15
2019-05-07T11:39:37.988Z,80.24
2019-05-07T11:40:38.138Z,79.44
2019-05-07T11:41:38.292Z,79.60
2019-05-07T11:42:38.441Z,78.31
2019-05-07T11:43:38.569Z,79.76
2019-05-07T11:44:38.766Z,79.76
2019-05-07T11:45:38.897Z,79.28
2019-05-07T11:46:39.043Z,83.63
2019-05-07T11:47:39.207Z,81.53
2019-05-07T11:48:39.377Z,78.96
2019-05-07T11:50:14.926Z,79.12
2019-05-07T11:50:39.764Z,77.50
2019-05-07T11:51:39.928Z,77.34
2019-05-07T11:52:40.078Z,79.60
2019-05-07T11:53:41.892Z,78.47
2019-05-07T11:54:42.163Z,76.70
2019-05-07T11:55:42.283Z,79.12
2019-05-07T11:56:42.328Z,83.95
2019-05-07T11:57:44.258Z,77.83
2019-05-07T11:58:42.185Z,79.12
2019-05-07T11:59:41.855Z,78.63
2019-05-07T12:00:42.723Z,86.53
2019-05-07T12:01:47.211Z,78.15
2019-05-07T12:02:47.128Z,89.27
2019-05-07T12:03:42.940Z,74.44
2019-05-07T12:04:43.333Z,79.92
2019-05-07T12:05:42.578Z,82.50
2019-05-07T12:06:43.334Z,82.02
2019-05-07T12:07:43.782Z,79.76
2019-05-07T12:08:49.812Z,80.73
2019-05-07T12:09:45.261Z,79.76
2019-05-07T12:10:44.269Z,79.12
2019-05-07T12:11:44.625Z,78.15
2019-05-07T12:12:43.872Z,80.89
2019-05-07T12:13:44.797Z,79.76
2019-05-07T12:14:44.145Z,76.38
2019-05-07T12:15:44.285Z,78.31
2019-05-07T12:16:45.314Z,78.63
2019-05-07T12:17:44.560Z,82.02
2019-05-07T12:18:44.683Z,81.86
2019-05-07T12:19:44.905Z,78.79
2019-05-07T12:20:45.298Z,78.79
2019-05-07T12:21:45.204Z,80.41
2019-05-07T12:22:45.348Z,80.73
2019-05-07T12:23:45.504Z,78.63
2019-05-07T12:24:45.839Z,80.24
2019-05-07T12:25:46.805Z,80.24
2019-05-07T12:26:45.914Z,79.76
2019-05-07T12:27:46.057Z,78.63
2019-05-07T12:28:46.213Z,77.67
2019-05-07T12:29:46.372Z,79.12
2019-05-07T12:30:46.510Z,82.66
2019-05-07T12:31:47.851Z,81.37
2019-05-07T12:32:47.802Z,81.69
2019-05-07T12:33:47.156Z,78.31
2019-05-07T12:34:48.283Z,86.69
2019-05-07T12:35:48.293Z,79.60
2019-05-07T12:36:47.797Z,79.44
2019-05-07T12:37:49.628Z,78.31
2019-05-07T12:39:21.940Z,76.38
2019-05-07T12:39:48.230Z,73.80
2019-05-07T12:40:49.328Z,79.12
2019-05-07T12:41:48.588Z,81.53
2019-05-07T12:42:48.722Z,78.63
2019-05-07T12:43:48.860Z,80.41
2019-05-07T12:44:48.991Z,79.28
2019-05-07T12:45:49.115Z,80.08
2019-05-07T12:46:49.371Z,79.92
2019-05-07T12:47:49.850Z,78.47
2019-05-07T12:48:49.688Z,77.67
2019-05-07T12:49:49.845Z,79.44
2019-05-07T12:50:52.134Z,80.57
2019-05-07T12:51:50.132Z,77.50
2019-05-07T12:52:50.299Z,75.25
2019-05-07T12:53:52.397Z,81.21
2019-05-07T12:54:52.485Z,77.18